This is the latest recevied weather packets stored in our database for station/object KD8NVS-13. If no packets are shown the sender has not sent any weather packets the latest 1 day(s).
| Time | Temp. | Humidity | Pressure | Rain* | Wind** | Luminosity | Snow |
|---|---|---|---|---|---|---|---|
| 1778021451 | 16.11° C | 95% | 998.7 hPa | 2.79 mm | 1.79 m/s, 261° | 21 W/m² | - |
| 1778021148 | 16.11° C | 95% | 998.3 hPa | 2.79 mm | 1.34 m/s, 253° | 20 W/m² | - |
| 1778020846 | 16.11° C | 94% | 998.7 hPa | 2.79 mm | 0.89 m/s, 270° | 20 W/m² | - |
| 1778020542 | 16.11° C | 94% | 998.7 hPa | 2.79 mm | 0.89 m/s, 281° | 21 W/m² | - |
| 1778020238 | 16.67° C | 93% | 998.3 hPa | 1.78 mm | 0.89 m/s, 148° | 8 W/m² | - |
| 1778019935 | 17.22° C | 90% | 998.3 hPa | 0.25 mm | 3.13 m/s, 258° | 3 W/m² | - |
| 1778019631 | 17.78° C | 85% | 998 hPa | 0 mm | 3.13 m/s, 258° | 19 W/m² | - |
| 1778019329 | 18.33° C | 79% | 998 hPa | 0 mm | 3.58 m/s, 270° | 16 W/m² | - |
| 1778019025 | 21.11° C | 65% | 997.6 hPa | 0 mm | 3.13 m/s, 288° | 15 W/m² | - |
| 1778018722 | 21.11° C | 64% | 997.6 hPa | 0 mm | 0.89 m/s, 252° | 35 W/m² | - |
| 1778018420 | 21.11° C | 62% | 997.6 hPa | 0 mm | 0.89 m/s, 174° | 36 W/m² | - |
| 1778018126 | 21.67° C | 60% | 997.6 hPa | 0 mm | 1.79 m/s, 288° | 54 W/m² | - |
| 1778017815 | 21.67° C | 61% | 997.6 hPa | 0 mm | 1.34 m/s, 234° | 36 W/m² | - |
| 1778017513 | 21.67° C | 62% | 997.3 hPa | 0 mm | 1.34 m/s, 202° | 49 W/m² | - |
| 1778017210 | 21.67° C | 60% | 997.3 hPa | 0 mm | 0.89 m/s, 213° | 52 W/m² | - |
| 1778016908 | 21.67° C | 60% | 997.6 hPa | 0 mm | 1.34 m/s, 202° | 57 W/m² | - |
| 1778016604 | 21.67° C | 60% | 997.3 hPa | 0 mm | 1.34 m/s, 229° | 76 W/m² | - |
| 1778016300 | 22.22° C | 59% | 997.3 hPa | 0 mm | 0.89 m/s, 334° | 142 W/m² | - |
| 1778015997 | 22.22° C | 60% | 997.3 hPa | 0 mm | 0.89 m/s, 312° | 108 W/m² | - |
| 1778015695 | 22.78° C | 60% | 997.6 hPa | 0 mm | 0.89 m/s, 238° | 166 W/m² | - |
| 1778015391 | 22.78° C | 59% | 997.3 hPa | 0 mm | 0.89 m/s, 253° | 158 W/m² | - |
| 1778015088 | 22.78° C | 59% | 997.6 hPa | 0 mm | 0.89 m/s, 189° | 194 W/m² | - |
| 1778014785 | 22.22° C | 58% | 997.6 hPa | 0 mm | 4.47 m/s, 271° | 293 W/m² | - |
| 1778014483 | 22.22° C | 60% | 997.6 hPa | 0 mm | 2.24 m/s, 281° | 204 W/m² | - |
| 1778014180 | 21.67° C | 60% | 998 hPa | 0 mm | 3.13 m/s, 265° | 172 W/m² | - |
* Rain latest hour (hover to see other rain measurements)
** Current wind speed in m/s (hover to see current wind gust speed)